Northern Ocean — V7WG5 — position and weather

sailwx.info

Track history (hours):
 
Tides and Currents Weather Stations Pressure Air Temp Water Temp Dewpoint Dewpoint Depression Visibility Wind Speed Wind Dir Waves Ship Positions

Northern Ocean

Last reported at 2017-Nov-11 04:47 UTC. Time now 2017-Nov-21 19:16 UTC.
Position N 22°47' W 017°15'.
Warning: this ship's position is 10 days out of date.

Length 183 m; draft 11.1 m.

Type: Tanker. MMSI: 538004294.

Date/timePositionNaut miles runAvg speedWind from/ knotsBaromVisibWave heightAir tempDewpointWater temp
2017-Nov-11 04:47N 22°47' W 017°15'1412.5
2017-Nov-11 03:39N 23°00' W 017°09'2212.4
2017-Nov-11 01:53N 23°21' W 017°02'10812.5
2017-Nov-10 17:11N 25°03' W 016°21'311.9
2017-Nov-10 16:56N 25°06' W 016°20'611.7
2017-Nov-10 16:27N 25°11' W 016°18'812.3
2017-Nov-10 15:48N 25°19' W 016°15'412.6
2017-Nov-10 15:30N 25°22' W 016°13'612.6
2017-Nov-10 15:00N 25°28' W 016°11'612.2
2017-Nov-10 14:30N 25°34' W 016°09'13712.6
2017-Nov-10 03:41N 27°43' W 015°17'211.9
2017-Nov-10 03:30N 27°45' W 015°16'611.8
2017-Nov-10 03:00N 27°50' W 015°14'611.9
2017-Nov-10 02:30N 27°56' W 015°14'611.1
2017-Nov-10 02:00N 28°01' W 015°16'611.2
2017-Nov-10 01:30N 28°05' W 015°21'4 7.6
2017-Nov-10 00:58N 28°08' W 015°24'0 0.2
2017-Nov-10 00:28N 28°08' W 015°24'0 0.0
2017-Nov-09 23:58N 28°08' W 015°24'0 0.0
2017-Nov-09 23:28N 28°08' W 015°24'0 0.1
2017-Nov-09 22:58N 28°08' W 015°24'0 0.2
2017-Nov-09 22:28N 28°08' W 015°24'0 0.2
2017-Nov-09 21:58N 28°08' W 015°24'0 0.2
2017-Nov-09 21:28N 28°08' W 015°24'0 0.0
2017-Nov-09 20:58N 28°08' W 015°24'0 0.1
2017-Nov-09 20:28N 28°08' W 015°24'0 0.1
2017-Nov-09 19:46N 28°08' W 015°24'0 0.2
2017-Nov-09 19:19N 28°08' W 015°24'0 0.1
2017-Nov-09 18:49N 28°08' W 015°24'0 0.1
2017-Nov-09 18:22N 28°08' W 015°24'0 0.3
2017-Nov-09 17:52N 28°08' W 015°24'0 1.1
2017-Nov-09 17:30N 28°08' W 015°24'3 5.0
2017-Nov-09 17:00N 28°06' W 015°22'2 3.0
2017-Nov-09 16:30N 28°05' W 015°21'1 1.0
2017-Nov-09 16:00N 28°05' W 015°21'0 0.9
2017-Nov-09 15:30N 28°06' W 015°21'0 0.9
2017-Nov-09 15:00N 28°06' W 015°21'1 1.0
2017-Nov-09 14:30N 28°07' W 015°21'0 0.9
2017-Nov-09 14:00N 28°07' W 015°21'1 1.0
2017-Nov-09 13:30N 28°08' W 015°21'1 1.0
2017-Nov-09 13:00N 28°08' W 015°21'2 5.0
2017-Nov-09 12:30N 28°11' W 015°21'611.1
2017-Nov-09 12:00N 28°16' W 015°20'612.1
2017-Nov-09 11:30N 28°22' W 015°18'612.0
2017-Nov-09 11:00N 28°28' W 015°16'611.7
2017-Nov-09 10:30N 28°34' W 015°15'611.5
2017-Nov-09 10:00N 28°39' W 015°13'611.6
2017-Nov-09 09:30N 28°45' W 015°11'611.9
2017-Nov-09 09:00N 28°50' W 015°10'11211.1
2017-Nov-08 22:55N 30°38' W 014°34'511.2
2017-Nov-08 22:30N 30°42' W 014°33'611.8
2017-Nov-08 21:59N 30°48' W 014°30'511.6
2017-Nov-08 21:30N 30°53' W 014°28'611.6
2017-Nov-08 21:00N 30°59' W 014°27'  
2017-Nov-04 12:43N 49°44' W 003°37'713.8
2017-Nov-04 12:14N 49°47' W 003°28'313.8
2017-Nov-04 11:59N 49°49' W 003°23'813.7
2017-Nov-04 11:22N 49°53' W 003°12'513.3
2017-Nov-04 11:00N 49°55' W 003°05'612.9
2017-Nov-04 10:31N 49°58' W 002°57'712.0
2017-Nov-04 09:54N 50°01' W 002°46'810.8
2017-Nov-04 09:08N 50°03' W 002°33'210.0
2017-Nov-04 08:58N 50°03' W 002°31'15 8.8
2017-Nov-04 07:16N 50°07' W 002°09'2 8.3
2017-Nov-04 07:00N 50°08' W 002°05'4 8.3
2017-Nov-04 06:30N 50°09' W 001°59'4 8.8
2017-Nov-04 06:00N 50°10' W 001°52'5 9.7
2017-Nov-04 05:30N 50°11' W 001°45'510.5
2017-Nov-04 05:00N 50°13' W 001°37'611.7
2017-Nov-04 04:30N 50°15' W 001°29'612.7
2017-Nov-04 04:00N 50°17' W 001°19'3714.7
2017-Nov-04 01:28N 50°27' W 000°23'714.1
2017-Nov-04 01:00N 50°28' W 000°13'713.5
2017-Nov-04 00:30N 50°30' W 000°03'713.2
2017-Nov-04 00:00N 50°32' E 000°07'612.7
2017-Nov-03 23:30N 50°34' E 000°17'612.1
2017-Nov-03 23:00N 50°35' E 000°26'611.4
2017-Nov-03 22:30N 50°37' E 000°35'510.9
2017-Nov-03 22:00N 50°40' E 000°42'510.7
2017-Nov-03 21:30N 50°43' E 000°49'610.6
2017-Nov-03 20:59N 50°46' E 000°56'510.9
2017-Nov-03 20:30N 50°49' E 001°03'611.5
2017-Nov-03 19:59N 50°54' E 001°09'612.6
2017-Nov-03 19:30N 50°58' E 001°16'714.0
2017-Nov-03 19:00N 51°03' E 001°24'714.8
2017-Nov-03 18:30N 51°07' E 001°33'714.7
2017-Nov-03 18:00N 51°12' E 001°42'713.8
2017-Nov-03 17:30N 51°18' E 001°49'613.0
2017-Nov-03 17:01N 51°23' E 001°54'612.1
2017-Nov-03 16:31N 51°28' E 001°59'611.7
2017-Nov-03 16:00N 51°33' E 002°05'611.3
2017-Nov-03 15:30N 51°37' E 002°11'611.0
2017-Nov-03 15:00N 51°41' E 002°18'1010.5
2017-Nov-03 14:05N 51°48' E 002°28'210.2
2017-Nov-03 13:51N 51°50' E 002°31'410.1
2017-Nov-03 13:29N 51°53' E 002°34'1210.0
2017-Nov-03 12:19N 52°04' E 002°37'410.5
2017-Nov-03 11:55N 52°09' E 002°38'511.0
2017-Nov-03 11:30N 52°13' E 002°38'611.6
2017-Nov-03 11:00N 52°19' E 002°39'612.1
2017-Nov-03 10:30N 52°25' E 002°39'812.6
2017-Nov-03 09:54N 52°33' E 002°39'4013.2
2017-Nov-03 06:52N 53°12' E 002°43'86 7.0
2017-Nov-02 18:26N 53°41' E 000°25'4 9.2
2017-Nov-02 18:00N 53°38' E 000°22'611.1
2017-Nov-02 17:30N 53°33' E 000°15'510.6
2017-Nov-02 17:00N 53°34' E 000°06'510.6
2017-Nov-02 16:30N 53°37' W 000°01'5 9.3
2017-Nov-02 16:00N 53°38' W 000°09'1 1.4
2017-Nov-02 15:29N 53°38' W 000°10'0 0.0
2017-Nov-02 14:59N 53°38' W 000°10'0 0.0
2017-Nov-02 14:29N 53°38' W 000°10'0 0.0
2017-Nov-02 13:59N 53°38' W 000°10'0 0.0
2017-Nov-02 13:29N 53°38' W 000°10'0 0.0
2017-Nov-02 12:59N 53°38' W 000°10'0 0.0
2017-Nov-02 12:29N 53°38' W 000°10'0 0.0
2017-Nov-02 11:59N 53°38' W 000°10'0 0.0
2017-Nov-02 11:29N 53°38' W 000°10'0 0.0
2017-Nov-02 10:53N 53°38' W 000°10'0 0.0
2017-Nov-02 10:26N 53°38' W 000°10'0 0.0
2017-Nov-02 09:59N 53°38' W 000°10'0 0.0
2017-Nov-02 09:29N 53°38' W 000°10'0 0.0
2017-Nov-02 08:59N 53°38' W 000°10'0 0.0
2017-Nov-02 08:29N 53°38' W 000°10'0 0.0
2017-Nov-02 07:59N 53°38' W 000°10'0 0.0
2017-Nov-02 07:29N 53°38' W 000°10'0 0.0
2017-Nov-02 06:59N 53°38' W 000°10'0 0.0
2017-Nov-02 06:29N 53°38' W 000°10'0 0.0
2017-Nov-02 05:59N 53°38' W 000°10'0 0.0
2017-Nov-02 05:29N 53°38' W 000°10'0 0.0
2017-Nov-02 04:56N 53°38' W 000°10'0 0.0
2017-Nov-02 04:29N 53°38' W 000°10'0 0.0
2017-Nov-02 03:59N 53°38' W 000°10'0 0.0
2017-Nov-02 03:29N 53°38' W 000°10'0 0.0
2017-Nov-02 02:59N 53°38' W 000°10'0 0.0
2017-Nov-02 02:29N 53°38' W 000°10'0 0.0
2017-Nov-02 01:56N 53°38' W 000°10'0 0.0
2017-Nov-02 01:26N 53°38' W 000°10'0 0.0
2017-Nov-02 00:59N 53°38' W 000°10'0 0.0
2017-Nov-02 00:29N 53°38' W 000°10'0 0.0
2017-Nov-01 23:59N 53°38' W 000°10'0 0.0
2017-Nov-01 23:29N 53°38' W 000°10'0 0.0
2017-Nov-01 22:59N 53°38' W 000°10'0 0.0
2017-Nov-01 22:29N 53°38' W 000°10'0 0.0
2017-Nov-01 21:59N 53°38' W 000°10'0 0.0
2017-Nov-01 21:29N 53°38' W 000°10'0 0.0
2017-Nov-01 20:59N 53°38' W 000°10'0 0.0
2017-Nov-01 20:29N 53°38' W 000°10'0 0.0
2017-Nov-01 19:59N 53°38' W 000°10'0 0.0
2017-Nov-01 19:29N 53°38' W 000°10'0 0.0
2017-Nov-01 18:59N 53°38' W 000°10'0 0.0
2017-Nov-01 18:26N 53°38' W 000°10'  
Track history (hours):
 
Tides and Currents Weather Stations Pressure Air Temp Water Temp Dewpoint Dewpoint Depression Visibility Wind Speed Wind Dir Waves Ship Positions

Northern Ocean

Last reported at 2017-Nov-11 04:47 UTC. Time now 2017-Nov-21 19:16 UTC.
Position N 22°47' W 017°15'.
Warning: this ship's position is 10 days out of date.

Length 183 m; draft 11.1 m.

Type: Tanker. MMSI: 538004294.

Date/timePositionNaut miles runAvg speedWind from/ knotsBaromVisibWave heightAir tempDewpointWater temp
2017-Nov-11 04:47N 22°47' W 017°15'1412.5
2017-Nov-11 03:39N 23°00' W 017°09'2212.4
2017-Nov-11 01:53N 23°21' W 017°02'10812.5
2017-Nov-10 17:11N 25°03' W 016°21'311.9
2017-Nov-10 16:56N 25°06' W 016°20'611.7
2017-Nov-10 16:27N 25°11' W 016°18'812.3
2017-Nov-10 15:48N 25°19' W 016°15'412.6
2017-Nov-10 15:30N 25°22' W 016°13'612.6
2017-Nov-10 15:00N 25°28' W 016°11'612.2
2017-Nov-10 14:30N 25°34' W 016°09'13712.6
2017-Nov-10 03:41N 27°43' W 015°17'211.9
2017-Nov-10 03:30N 27°45' W 015°16'611.8
2017-Nov-10 03:00N 27°50' W 015°14'611.9
2017-Nov-10 02:30N 27°56' W 015°14'611.1
2017-Nov-10 02:00N 28°01' W 015°16'611.2
2017-Nov-10 01:30N 28°05' W 015°21'4 7.6
2017-Nov-10 00:58N 28°08' W 015°24'0 0.2
2017-Nov-10 00:28N 28°08' W 015°24'0 0.0
2017-Nov-09 23:58N 28°08' W 015°24'0 0.0
2017-Nov-09 23:28N 28°08' W 015°24'0 0.1
2017-Nov-09 22:58N 28°08' W 015°24'0 0.2
2017-Nov-09 22:28N 28°08' W 015°24'0 0.2
2017-Nov-09 21:58N 28°08' W 015°24'0 0.2
2017-Nov-09 21:28N 28°08' W 015°24'0 0.0
2017-Nov-09 20:58N 28°08' W 015°24'0 0.1
2017-Nov-09 20:28N 28°08' W 015°24'0 0.1
2017-Nov-09 19:46N 28°08' W 015°24'0 0.2
2017-Nov-09 19:19N 28°08' W 015°24'0 0.1
2017-Nov-09 18:49N 28°08' W 015°24'0 0.1
2017-Nov-09 18:22N 28°08' W 015°24'0 0.3
2017-Nov-09 17:52N 28°08' W 015°24'0 1.1
2017-Nov-09 17:30N 28°08' W 015°24'3 5.0
2017-Nov-09 17:00N 28°06' W 015°22'2 3.0
2017-Nov-09 16:30N 28°05' W 015°21'1 1.0
2017-Nov-09 16:00N 28°05' W 015°21'0 0.9
2017-Nov-09 15:30N 28°06' W 015°21'0 0.9
2017-Nov-09 15:00N 28°06' W 015°21'1 1.0
2017-Nov-09 14:30N 28°07' W 015°21'0 0.9
2017-Nov-09 14:00N 28°07' W 015°21'1 1.0
2017-Nov-09 13:30N 28°08' W 015°21'1 1.0
2017-Nov-09 13:00N 28°08' W 015°21'2 5.0
2017-Nov-09 12:30N 28°11' W 015°21'611.1
2017-Nov-09 12:00N 28°16' W 015°20'612.1
2017-Nov-09 11:30N 28°22' W 015°18'612.0
2017-Nov-09 11:00N 28°28' W 015°16'611.7
2017-Nov-09 10:30N 28°34' W 015°15'611.5
2017-Nov-09 10:00N 28°39' W 015°13'611.6
2017-Nov-09 09:30N 28°45' W 015°11'611.9
2017-Nov-09 09:00N 28°50' W 015°10'11211.1
2017-Nov-08 22:55N 30°38' W 014°34'511.2
2017-Nov-08 22:30N 30°42' W 014°33'611.8
2017-Nov-08 21:59N 30°48' W 014°30'511.6
2017-Nov-08 21:30N 30°53' W 014°28'611.6
2017-Nov-08 21:00N 30°59' W 014°27'  
2017-Nov-04 12:43N 49°44' W 003°37'713.8
2017-Nov-04 12:14N 49°47' W 003°28'313.8
2017-Nov-04 11:59N 49°49' W 003°23'813.7
2017-Nov-04 11:22N 49°53' W 003°12'513.3
2017-Nov-04 11:00N 49°55' W 003°05'612.9
2017-Nov-04 10:31N 49°58' W 002°57'712.0
2017-Nov-04 09:54N 50°01' W 002°46'810.8
2017-Nov-04 09:08N 50°03' W 002°33'210.0
2017-Nov-04 08:58N 50°03' W 002°31'15 8.8
2017-Nov-04 07:16N 50°07' W 002°09'2 8.3
2017-Nov-04 07:00N 50°08' W 002°05'4 8.3
2017-Nov-04 06:30N 50°09' W 001°59'4 8.8
2017-Nov-04 06:00N 50°10' W 001°52'5 9.7
2017-Nov-04 05:30N 50°11' W 001°45'510.5
2017-Nov-04 05:00N 50°13' W 001°37'611.7
2017-Nov-04 04:30N 50°15' W 001°29'612.7
2017-Nov-04 04:00N 50°17' W 001°19'3714.7
2017-Nov-04 01:28N 50°27' W 000°23'714.1
2017-Nov-04 01:00N 50°28' W 000°13'713.5
2017-Nov-04 00:30N 50°30' W 000°03'713.2
2017-Nov-04 00:00N 50°32' E 000°07'612.7
2017-Nov-03 23:30N 50°34' E 000°17'612.1
2017-Nov-03 23:00N 50°35' E 000°26'611.4
2017-Nov-03 22:30N 50°37' E 000°35'510.9
2017-Nov-03 22:00N 50°40' E 000°42'510.7
2017-Nov-03 21:30N 50°43' E 000°49'610.6
2017-Nov-03 20:59N 50°46' E 000°56'510.9
2017-Nov-03 20:30N 50°49' E 001°03'611.5
2017-Nov-03 19:59N 50°54' E 001°09'612.6
2017-Nov-03 19:30N 50°58' E 001°16'714.0
2017-Nov-03 19:00N 51°03' E 001°24'714.8
2017-Nov-03 18:30N 51°07' E 001°33'714.7
2017-Nov-03 18:00N 51°12' E 001°42'713.8
2017-Nov-03 17:30N 51°18' E 001°49'613.0
2017-Nov-03 17:01N 51°23' E 001°54'612.1
2017-Nov-03 16:31N 51°28' E 001°59'611.7
2017-Nov-03 16:00N 51°33' E 002°05'611.3
2017-Nov-03 15:30N 51°37' E 002°11'611.0
2017-Nov-03 15:00N 51°41' E 002°18'1010.5
2017-Nov-03 14:05N 51°48' E 002°28'210.2
2017-Nov-03 13:51N 51°50' E 002°31'410.1
2017-Nov-03 13:29N 51°53' E 002°34'1210.0
2017-Nov-03 12:19N 52°04' E 002°37'410.5
2017-Nov-03 11:55N 52°09' E 002°38'511.0
2017-Nov-03 11:30N 52°13' E 002°38'611.6
2017-Nov-03 11:00N 52°19' E 002°39'612.1
2017-Nov-03 10:30N 52°25' E 002°39'812.6
2017-Nov-03 09:54N 52°33' E 002°39'4013.2
2017-Nov-03 06:52N 53°12' E 002°43'86 7.0
2017-Nov-02 18:26N 53°41' E 000°25'4 9.2
2017-Nov-02 18:00N 53°38' E 000°22'611.1
2017-Nov-02 17:30N 53°33' E 000°15'510.6
2017-Nov-02 17:00N 53°34' E 000°06'510.6
2017-Nov-02 16:30N 53°37' W 000°01'5 9.3
2017-Nov-02 16:00N 53°38' W 000°09'1 1.4
2017-Nov-02 15:29N 53°38' W 000°10'0 0.0
2017-Nov-02 14:59N 53°38' W 000°10'0 0.0
2017-Nov-02 14:29N 53°38' W 000°10'0 0.0
2017-Nov-02 13:59N 53°38' W 000°10'0 0.0
2017-Nov-02 13:29N 53°38' W 000°10'0 0.0
2017-Nov-02 12:59N 53°38' W 000°10'0 0.0
2017-Nov-02 12:29N 53°38' W 000°10'0 0.0
2017-Nov-02 11:59N 53°38' W 000°10'0 0.0
2017-Nov-02 11:29N 53°38' W 000°10'0 0.0
2017-Nov-02 10:53N 53°38' W 000°10'0 0.0
2017-Nov-02 10:26N 53°38' W 000°10'0 0.0
2017-Nov-02 09:59N 53°38' W 000°10'0 0.0
2017-Nov-02 09:29N 53°38' W 000°10'0 0.0
2017-Nov-02 08:59N 53°38' W 000°10'0 0.0
2017-Nov-02 08:29N 53°38' W 000°10'0 0.0
2017-Nov-02 07:59N 53°38' W 000°10'0 0.0
2017-Nov-02 07:29N 53°38' W 000°10'0 0.0
2017-Nov-02 06:59N 53°38' W 000°10'0 0.0
2017-Nov-02 06:29N 53°38' W 000°10'0 0.0
2017-Nov-02 05:59N 53°38' W 000°10'0 0.0
2017-Nov-02 05:29N 53°38' W 000°10'0 0.0
2017-Nov-02 04:56N 53°38' W 000°10'0 0.0
2017-Nov-02 04:29N 53°38' W 000°10'0 0.0
2017-Nov-02 03:59N 53°38' W 000°10'0 0.0
2017-Nov-02 03:29N 53°38' W 000°10'0 0.0
2017-Nov-02 02:59N 53°38' W 000°10'0 0.0
2017-Nov-02 02:29N 53°38' W 000°10'0 0.0
2017-Nov-02 01:56N 53°38' W 000°10'0 0.0
2017-Nov-02 01:26N 53°38' W 000°10'0 0.0
2017-Nov-02 00:59N 53°38' W 000°10'0 0.0
2017-Nov-02 00:29N 53°38' W 000°10'0 0.0
2017-Nov-01 23:59N 53°38' W 000°10'0 0.0
2017-Nov-01 23:29N 53°38' W 000°10'0 0.0
2017-Nov-01 22:59N 53°38' W 000°10'0 0.0
2017-Nov-01 22:29N 53°38' W 000°10'0 0.0
2017-Nov-01 21:59N 53°38' W 000°10'0 0.0
2017-Nov-01 21:29N 53°38' W 000°10'0 0.0
2017-Nov-01 20:59N 53°38' W 000°10'0 0.0
2017-Nov-01 20:29N 53°38' W 000°10'0 0.0
2017-Nov-01 19:59N 53°38' W 000°10'0 0.0
2017-Nov-01 19:29N 53°38' W 000°10'0 0.0
2017-Nov-01 18:59N 53°38' W 000°10'0 0.0
2017-Nov-01 18:26N 53°38' W 000°10'  

Dump ship's entire track history